Time;durP1;ratioP1;P1;durP2;ratioP2;P2;SDS_P1;SDS_P2;PMS_P1;PMS_P2;Temp;Humidity;BMP_temperature;BMP_pressure;BME280_temperature;BME280_humidity;BME280_pressure;Samples;Min_cycle;Max_cycle;Signal;HPM_P1;HPM_P2
2022/10/06 00:02:09;;;;;;;0.08;0.00;;;;;;;12.40;100.00;102352.97;10583625;28;20063;-76
2022/10/06 00:07:12;;;;;;;0.00;0.00;;;;;;;12.35;100.00;102360.53;10548189;28;20157;-76
2022/10/06 00:12:42;;;;;;;0.00;0.00;;;;;;;12.36;100.00;102351.09;10582577;28;20042;-77
2022/10/06 00:17:44;;;;;;;0.52;0.50;;;;;;;12.40;100.00;102363.31;10582884;28;20126;-77
2022/10/06 00:22:48;;;;;;;0.10;0.10;;;;;;;12.41;100.00;102369.34;10564503;28;20050;-77
2022/10/06 00:27:51;;;;;;;0.00;0.00;;;;;;;12.41;100.00;102379.69;10564518;28;20039;-76
2022/10/06 00:33:01;;;;;;;0.22;0.22;;;;;;;12.40;100.00;102388.28;10563947;28;20076;-77
2022/10/06 00:38:03;;;;;;;0.80;0.75;;;;;;;12.37;100.00;102394.19;10582323;28;20032;-76
2022/10/06 00:43:05;;;;;;;0.00;0.00;;;;;;;12.33;100.00;102394.88;10581962;28;20067;-77
2022/10/06 00:48:33;;;;;;;0.10;0.10;;;;;;;12.32;100.00;102417.25;10563847;28;20078;-76
2022/10/06 00:53:36;;;;;;;0.00;0.00;;;;;;;12.38;100.00;102411.47;10563351;28;20044;-76
2022/10/06 00:58:37;;;;;;;0.00;0.00;;;;;;;12.33;100.00;102408.69;10563237;28;20051;-76
2022/10/06 01:03:44;;;;;;;0.00;0.00;;;;;;;12.26;100.00;102406.66;10581679;28;20040;-77
2022/10/06 01:08:46;;;;;;;0.00;0.00;;;;;;;12.27;100.00;102400.66;10563580;28;20075;-77
2022/10/06 01:13:48;;;;;;;0.28;0.20;;;;;;;12.20;100.00;102402.13;10581069;28;20063;-76
2022/10/06 01:18:53;;;;;;;0.00;0.00;;;;;;;12.14;100.00;102398.38;10562828;28;20525;-77
2022/10/06 01:23:56;;;;;;;0.13;0.03;;;;;;;12.31;100.00;102400.00;10562867;28;20513;-77
2022/10/06 01:28:58;;;;;;;0.20;0.20;;;;;;;12.20;100.00;102401.22;10562728;28;20563;-77
2022/10/06 01:34:00;;;;;;;0.98;0.40;;;;;;;12.01;100.00;102407.28;10562931;28;20042;-76
2022/10/06 01:39:02;;;;;;;0.00;0.00;;;;;;;12.08;100.00;102416.19;10562734;28;20050;-76
2022/10/06 01:44:04;;;;;;;0.32;0.20;;;;;;;11.96;100.00;102425.13;10550292;28;20048;-77
2022/10/06 01:49:06;;;;;;;0.10;0.10;;;;;;;11.92;100.00;102430.97;10566284;28;20040;-77
2022/10/06 01:54:08;;;;;;;0.20;0.00;;;;;;;11.88;100.00;102444.56;10562494;28;20040;-77
2022/10/06 01:59:10;;;;;;;0.00;0.00;;;;;;;11.83;100.00;102446.97;10580226;28;20380;-78
2022/10/06 02:04:11;;;;;;;0.05;0.05;;;;;;;11.78;100.00;102444.97;10562037;28;20048;-77
2022/10/06 02:09:13;;;;;;;0.98;0.47;;;;;;;11.75;100.00;102456.91;10561796;28;20067;-77
2022/10/06 02:14:19;;;;;;;0.00;0.00;;;;;;;11.65;100.00;102462.50;10567988;28;20059;-77
2022/10/06 02:19:21;;;;;;;0.63;0.20;;;;;;;11.51;100.00;102463.50;10580181;28;20048;-77
2022/10/06 02:24:23;;;;;;;0.10;0.00;;;;;;;11.39;100.00;102469.88;10543830;28;20040;-77
2022/10/06 02:29:25;;;;;;;0.00;0.00;;;;;;;11.31;100.00;102476.34;10549238;28;20044;-77
2022/10/06 02:34:29;;;;;;;1.45;0.88;;;;;;;11.26;100.00;102480.44;10587501;28;20067;-77
2022/10/06 02:39:31;;;;;;;0.03;0.03;;;;;;;11.16;100.00;102504.00;10593979;28;20044;-77
2022/10/06 02:44:33;;;;;;;1.17;0.85;;;;;;;11.10;100.00;102508.03;10597876;28;20039;-76
2022/10/06 02:49:35;;;;;;;1.65;0.38;;;;;;;11.11;100.00;102516.66;10568081;28;20089;-77
2022/10/06 02:54:37;;;;;;;0.45;0.28;;;;;;;11.02;100.00;102530.00;10567513;28;20478;-76
2022/10/06 02:59:38;;;;;;;0.55;0.35;;;;;;;11.01;100.00;102528.22;10585627;28;20047;-77
2022/10/06 03:04:40;;;;;;;2.92;1.40;;;;;;;10.96;100.00;102540.00;10566915;28;20043;-76
2022/10/06 03:09:42;;;;;;;0.35;0.30;;;;;;;10.96;100.00;102545.16;10585226;28;20046;-77
2022/10/06 03:14:43;;;;;;;0.00;0.00;;;;;;;10.94;100.00;102554.50;10566719;28;20035;-76
2022/10/06 03:19:45;;;;;;;0.00;0.00;;;;;;;10.92;100.00;102556.09;10538625;28;20044;-77
2022/10/06 03:24:47;;;;;;;0.00;0.00;;;;;;;10.81;100.00;102571.03;10562915;28;20138;-76
2022/10/06 03:29:50;;;;;;;0.60;0.17;;;;;;;10.77;100.00;102590.59;10565991;28;20047;-76
2022/10/06 03:34:53;;;;;;;0.80;0.03;;;;;;;10.73;100.00;102590.38;10565523;28;20047;-77
2022/10/06 03:39:55;;;;;;;0.10;0.05;;;;;;;10.69;100.00;102601.34;10556719;28;20076;-77
2022/10/06 03:44:58;;;;;;;0.10;0.10;;;;;;;10.56;100.00;102604.94;10560393;28;20050;-77
2022/10/06 03:50:00;;;;;;;0.70;0.43;;;;;;;10.60;100.00;102622.38;10536751;28;20049;-77
2022/10/06 03:55:03;;;;;;;0.20;0.17;;;;;;;10.56;100.00;102639.34;10540277;28;20090;-77
2022/10/06 04:00:05;;;;;;;0.10;0.10;;;;;;;10.43;100.00;102640.38;10565221;28;20046;-76
2022/10/06 04:05:12;;;;;;;0.00;0.00;;;;;;;10.47;100.00;102654.31;10563111;28;20040;-77
2022/10/06 04:10:15;;;;;;;0.45;0.38;;;;;;;10.55;100.00;102659.88;10563591;28;20043;-76
2022/10/06 04:15:16;;;;;;;0.00;0.00;;;;;;;10.51;100.00;102657.94;10564536;28;20110;-76
2022/10/06 04:20:18;;;;;;;2.50;0.98;;;;;;;10.43;100.00;102666.13;10563920;28;20078;-77
2022/10/06 04:25:20;;;;;;;0.10;0.10;;;;;;;10.41;100.00;102666.88;10563941;28;20092;-76
2022/10/06 04:30:21;;;;;;;0.03;0.00;;;;;;;10.51;100.00;102668.25;10563322;28;20534;-77
2022/10/06 04:35:23;;;;;;;0.20;0.10;;;;;;;10.56;100.00;102671.97;10580824;28;20079;-77
2022/10/06 04:40:25;;;;;;;1.23;0.47;;;;;;;10.44;100.00;102678.22;10551828;28;20040;-77
2022/10/06 04:45:27;;;;;;;0.10;0.10;;;;;;;10.48;100.00;102685.31;10562362;28;20052;-77
2022/10/06 04:50:29;;;;;;;0.10;0.10;;;;;;;10.36;100.00;102689.75;10581443;28;20443;-77
2022/10/06 04:55:47;;;;;;;0.08;0.00;;;;;;;10.29;100.00;102698.81;10565300;28;20051;-77
2022/10/06 05:00:48;;;;;;;0.00;0.00;;;;;;;10.28;100.00;102716.78;10562646;28;20046;-77
2022/10/06 05:05:50;;;;;;;0.57;0.10;;;;;;;10.20;100.00;102723.19;10574726;28;20123;-77
2022/10/06 05:10:59;;;;;;;0.00;0.00;;;;;;;10.11;100.00;102733.88;10557728;28;20158;-76
2022/10/06 05:16:03;;;;;;;0.23;0.20;;;;;;;10.10;100.00;102745.84;10562810;28;20050;-77
2022/10/06 05:21:09;;;;;;;0.00;0.00;;;;;;;10.07;100.00;102748.25;10562312;28;20050;-77
2022/10/06 05:26:13;;;;;;;0.35;0.35;;;;;;;10.00;100.00;102761.56;10556605;28;20047;-77
2022/10/06 05:31:21;;;;;;;0.00;0.00;;;;;;;9.89;100.00;102772.91;10580616;28;20035;-77
2022/10/06 05:36:25;;;;;;;0.38;0.25;;;;;;;9.81;100.00;102785.34;10545508;28;20113;-77
2022/10/06 05:41:31;;;;;;;0.00;0.00;;;;;;;9.83;100.00;102794.94;10557951;28;20040;-77
2022/10/06 05:46:36;;;;;;;0.00;0.00;;;;;;;9.79;100.00;102807.53;10553483;28;20046;-76
2022/10/06 05:51:40;;;;;;;0.40;0.25;;;;;;;9.75;100.00;102810.72;10569430;28;20039;-77
2022/10/06 05:56:47;;;;;;;0.00;0.00;;;;;;;9.67;100.00;102820.56;10566180;28;20074;-77
2022/10/06 06:01:50;;;;;;;0.10;0.10;;;;;;;9.74;100.00;102835.56;10575504;28;20101;-77
2022/10/06 06:07:01;;;;;;;0.00;0.00;;;;;;;9.75;100.00;102852.78;10579163;28;20486;-77
2022/10/06 06:12:03;;;;;;;0.45;0.00;;;;;;;9.79;100.00;102865.03;10567917;28;20051;-76
2022/10/06 06:17:14;;;;;;;0.52;0.28;;;;;;;10.26;100.00;102857.50;10568636;28;20082;-77
2022/10/06 06:22:16;;;;;;;0.00;0.00;;;;;;;10.57;100.00;102834.44;10571752;28;20043;-77
2022/10/06 06:27:20;;;;;;;1.95;0.22;;;;;;;10.76;100.00;102825.16;10568258;28;20047;-78
2022/10/06 06:32:21;;;;;;;0.00;0.00;;;;;;;11.02;100.00;102802.50;10566206;28;20048;-77
2022/10/06 06:37:24;;;;;;;0.20;0.10;;;;;;;11.21;100.00;102788.88;10561502;28;20035;-76
2022/10/06 06:42:26;;;;;;;0.90;0.03;;;;;;;11.42;100.00;102784.88;10568099;28;20143;-77
2022/10/06 06:47:46;;;;;;;1.02;0.73;;;;;;;11.65;100.00;102780.03;10566481;28;20142;-76
2022/10/06 06:52:48;;;;;;;0.10;0.10;;;;;;;11.88;100.00;102772.53;10567210;28;20120;-74
2022/10/06 06:57:51;;;;;;;0.00;0.00;;;;;;;11.99;100.00;102768.84;10585279;28;20050;-77
2022/10/06 07:02:59;;;;;;;0.00;0.00;;;;;;;12.26;100.00;102763.25;10567739;28;20042;-77
2022/10/06 07:08:03;;;;;;;0.73;0.40;;;;;;;12.35;100.00;102776.66;10566815;28;20090;-78
2022/10/06 07:13:05;;;;;;;0.10;0.10;;;;;;;12.36;100.00;102765.50;10567235;28;20039;-77
2022/10/06 07:28:53;;;;;;;17.33;0.70;;;;;;;13.28;100.00;102752.47;10566722;28;20079;-77
2022/10/06 07:33:55;;;;;;;0.40;0.28;;;;;;;13.21;100.00;102759.88;10584411;28;20040;-78
2022/10/06 07:38:57;;;;;;;0.15;0.03;;;;;;;13.50;100.00;102769.00;10566157;28;20047;-77
2022/10/06 07:43:58;;;;;;;0.55;0.10;;;;;;;14.00;100.00;102768.47;10549225;28;20063;-77
2022/10/06 07:49:05;;;;;;;0.25;0.17;;;;;;;13.61;100.00;102778.09;10572152;28;20050;-77
2022/10/06 07:54:09;;;;;;;0.50;0.40;;;;;;;14.08;100.00;102773.16;10612061;28;20040;-77
2022/10/06 07:59:19;;;;;;;0.35;0.35;;;;;;;13.89;100.00;102786.16;10595400;28;20136;-77
2022/10/06 08:04:20;;;;;;;1.10;0.80;;;;;;;14.86;100.00;102789.22;10586601;28;20060;-76
2022/10/06 08:09:22;;;;;;;0.90;0.68;;;;;;;14.42;100.00;102797.88;10532352;28;20126;-77
2022/10/06 08:14:24;;;;;;;6.70;1.90;;;;;;;14.68;100.00;102802.38;10583415;28;20036;-78
2022/10/06 08:19:25;;;;;;;0.00;0.00;;;;;;;15.02;100.00;102814.94;10583149;28;20486;-76
2022/10/06 08:24:27;;;;;;;0.00;0.00;;;;;;;15.30;100.00;102817.69;10583142;28;20379;-77
2022/10/06 08:29:49;;;;;;;0.20;0.17;;;;;;;15.32;100.00;102816.00;10582484;28;20077;-77
2022/10/06 08:34:50;;;;;;;3.38;0.20;;;;;;;15.77;100.00;102821.09;10582655;28;20126;-77
2022/10/06 08:39:54;;;;;;;0.08;0.08;;;;;;;15.43;100.00;102822.50;10564153;28;20059;-77
2022/10/06 08:45:03;;;;;;;1.08;0.10;;;;;;;15.82;100.00;102827.34;10564682;28;20130;-77
2022/10/06 08:50:11;;;;;;;0.17;0.10;;;;;;;16.21;100.00;102823.50;10582014;28;20046;-77
2022/10/06 08:56:07;;;;;;;0.10;0.00;;;;;;;16.25;100.00;102816.69;10582002;28;20063;-77
2022/10/06 09:01:14;;;;;;;0.10;0.10;;;;;;;16.33;100.00;102817.81;10476496;28;20071;-77
2022/10/06 09:06:53;;;;;;;0.00;0.00;;;;;;;17.38;100.00;102825.34;10581574;28;20074;-77
2022/10/06 09:12:17;;;;;;;0.00;0.00;;;;;;;16.36;100.00;102833.50;10562238;28;20049;-77
2022/10/06 09:17:27;;;;;;;2.75;1.25;;;;;;;16.83;100.00;102848.84;10581890;28;20065;-77
2022/10/06 09:22:30;;;;;;;0.00;0.00;;;;;;;16.90;100.00;102849.94;10569176;28;20154;-76
2022/10/06 09:27:32;;;;;;;0.00;0.00;;;;;;;16.98;100.00;102865.84;10590160;28;20075;-77
2022/10/06 09:32:34;;;;;;;0.00;0.00;;;;;;;16.52;100.00;102862.63;10589710;28;20423;-76
2022/10/06 09:37:53;;;;;;;0.43;0.30;;;;;;;16.40;100.00;102881.31;10589748;28;20047;-76
2022/10/06 09:42:56;;;;;;;0.40;0.28;;;;;;;15.84;100.00;102880.28;10589333;28;20043;-77
2022/10/06 09:48:22;;;;;;;0.10;0.10;;;;;;;16.01;100.00;102890.41;10570951;28;20043;-77
2022/10/06 09:59:58;;;;;;;2.05;0.77;;;;;;;15.91;100.00;102891.81;10569788;28;20487;-77
2022/10/06 10:05:01;;;;;;;0.43;0.20;;;;;;;16.21;100.00;102890.22;10588491;28;20044;-76
2022/10/06 10:16:15;;;;;;;1.65;0.20;;;;;;;16.98;100.00;102879.75;10587602;28;20050;-77
2022/10/06 10:21:32;;;;;;;;;;;;;;;16.40;100.00;102894.31;10570186;28;20490;-76
2022/10/06 10:26:59;;;;;;;0.80;0.08;;;;;;;16.26;100.00;102893.88;10587508;28;20378;-77
2022/10/06 10:32:16;;;;;;;0.10;0.10;;;;;;;18.16;100.00;102885.69;10573114;28;20432;-76
2022/10/06 10:37:24;;;;;;;0.15;0.00;;;;;;;17.87;100.00;102883.16;10560086;28;20078;-76
2022/10/06 10:42:39;;;;;;;0.00;0.00;;;;;;;16.85;100.00;102899.25;10587292;28;20090;-76
2022/10/06 10:47:44;;;;;;;0.13;0.13;;;;;;;15.61;100.00;102913.22;10526264;28;20047;-76
2022/10/06 10:52:49;;;;;;;0.10;0.10;;;;;;;15.46;100.00;102918.72;10572690;28;20383;-75
2022/10/06 10:57:55;;;;;;;0.00;0.00;;;;;;;15.55;100.00;102911.25;10585615;28;20058;-76
2022/10/06 11:03:00;;;;;;;0.43;0.00;;;;;;;15.45;100.00;102921.25;10567519;28;20071;-75
2022/10/06 11:08:28;;;;;;;0.65;0.20;;;;;;;16.59;100.00;102908.81;10573152;28;20363;-75
2022/10/06 11:13:44;;;;;;;0.00;0.00;;;;;;;17.98;100.00;102897.41;10543344;28;20124;-75
2022/10/06 11:19:05;;;;;;;0.00;0.00;;;;;;;19.14;100.00;102891.53;10582650;28;20061;-76
2022/10/06 11:31:43;;;;;;;0.00;0.00;;;;;;;16.61;100.00;102899.34;10583397;28;20106;-75
2022/10/06 11:36:55;;;;;;;2.55;0.10;;;;;;;16.49;100.00;102912.84;10573166;28;20046;-77
2022/10/06 11:42:05;;;;;;;0.05;0.00;;;;;;;15.77;100.00;102925.06;10580056;28;20456;-76
2022/10/06 11:47:13;;;;;;;0.05;0.05;;;;;;;16.12;100.00;102922.00;10583825;28;20051;-76
2022/10/06 11:52:15;;;;;;;1.00;0.28;;;;;;;17.08;100.00;102910.44;10548187;28;20053;-77
2022/10/06 11:57:22;;;;;;;0.43;0.30;;;;;;;15.94;100.00;102927.41;10565266;28;20471;-75
2022/10/06 12:02:33;;;;;;;1.17;1.13;;;;;;;16.47;100.00;102911.91;10553228;28;20036;-77
2022/10/06 12:07:56;;;;;;;0.00;0.00;;;;;;;15.70;100.00;102915.25;10569813;28;20563;-76
2022/10/06 12:13:18;;;;;;;1.40;0.47;;;;;;;15.55;100.00;102908.66;10561655;28;20040;-76
2022/10/06 12:18:50;;;;;;;1.90;0.17;;;;;;;17.19;100.00;102896.84;10564811;28;20046;-75
2022/10/06 12:24:24;;;;;;;0.52;0.10;;;;;;;17.41;100.00;102888.84;10567041;28;20039;-76
2022/10/06 12:35:38;;;;;;;0.00;0.00;;;;;;;17.74;100.00;102887.16;10580336;28;20118;-76
2022/10/06 12:40:42;;;;;;;;;;;;;;;17.96;100.00;102878.22;10557664;28;20046;-76
2022/10/06 12:45:47;;;;;;;0.50;0.35;;;;;;;17.46;100.00;102885.50;10581818;28;19970;-76
2022/10/06 12:50:56;;;;;;;0.00;0.00;;;;;;;16.27;100.00;102893.03;10581531;28;20046;-76
2022/10/06 12:56:03;;;;;;;0.10;0.10;;;;;;;16.36;100.00;102885.53;10576737;28;20376;-76
2022/10/06 13:01:09;;;;;;;0.00;0.00;;;;;;;16.86;100.00;102879.34;10561971;28;20035;-76
2022/10/06 13:06:11;;;;;;;0.00;0.00;;;;;;;17.76;100.00;102880.25;10561446;28;20050;-75
2022/10/06 13:11:25;;;;;;;0.00;0.00;;;;;;;18.20;100.00;102872.75;10559328;28;20139;-76
2022/10/06 13:16:31;;;;;;;1.38;0.70;;;;;;;17.41;100.00;102878.41;10578921;28;20043;-76
2022/10/06 13:21:33;;;;;;;0.10;0.10;;;;;;;16.46;100.00;102869.41;10580991;28;20483;-75
2022/10/06 13:26:35;;;;;;;0.30;0.03;;;;;;;16.62;100.00;102872.50;10580505;28;20071;-75
2022/10/06 13:31:45;;;;;;;0.00;0.00;;;;;;;16.58;100.00;102868.03;10561716;28;20059;-76
2022/10/06 13:36:54;;;;;;;0.25;0.20;;;;;;;17.06;100.00;102873.06;10542862;28;20047;-77
2022/10/06 13:42:01;;;;;;;0.00;0.00;;;;;;;16.21;100.00;102869.41;10580598;28;20050;-76
2022/10/06 13:47:28;;;;;;;0.08;0.00;;;;;;;17.39;100.00;102864.44;10591131;28;20134;-76
2022/10/06 13:52:35;;;;;;;0.98;0.35;;;;;;;17.64;100.00;102867.75;10575256;28;20059;-75
2022/10/06 13:57:50;;;;;;;0.00;0.00;;;;;;;17.85;100.00;102861.38;10579355;28;20048;-76
2022/10/06 14:03:07;;;;;;;8.32;0.40;;;;;;;17.68;100.00;102872.25;10574982;28;20044;-76
2022/10/06 14:08:08;;;;;;;0.20;0.13;;;;;;;17.43;100.00;102871.53;10581915;28;20051;-77
2022/10/06 14:13:21;;;;;;;0.10;0.10;;;;;;;17.55;100.00;102870.09;10560907;28;20046;-76
2022/10/06 14:18:40;;;;;;;0.03;0.03;;;;;;;17.37;100.00;102876.56;10552531;28;20050;-76
2022/10/06 14:23:48;;;;;;;0.10;0.05;;;;;;;17.02;100.00;102868.56;10564723;28;20050;-76
2022/10/06 14:28:51;;;;;;;0.00;0.00;;;;;;;16.84;100.00;102874.06;10559382;28;20120;-76
2022/10/06 14:33:55;;;;;;;0.17;0.17;;;;;;;17.09;100.00;102870.53;10573154;28;20044;-76
2022/10/06 14:45:40;;;;;;;0.00;0.00;;;;;;;16.71;100.00;102872.81;10557788;28;20092;-76
2022/10/06 14:50:45;;;;;;;1.45;0.13;;;;;;;17.10;100.00;102867.09;10567907;28;20501;-76
2022/10/06 14:56:43;;;;;;;0.00;0.00;;;;;;;16.26;100.00;102871.34;10585694;28;20387;-76
2022/10/06 15:01:46;;;;;;;0.20;0.10;;;;;;;16.38;100.00;102864.78;10571898;28;20088;-76
2022/10/06 15:12:08;;;;;;;0.08;0.08;;;;;;;16.29;100.00;102863.66;10567103;28;20150;-76
2022/10/06 15:17:10;;;;;;;0.00;0.00;;;;;;;16.74;100.00;102857.28;10584919;28;20047;-76
2022/10/06 15:22:11;;;;;;;0.00;0.00;;;;;;;16.72;100.00;102858.94;10580715;28;20047;-76
2022/10/06 15:32:33;;;;;;;3.20;0.63;;;;;;;16.57;100.00;102853.28;10583978;28;20038;-76
2022/10/06 15:37:34;;;;;;;0.00;0.00;;;;;;;16.35;100.00;102852.53;10579974;28;20514;-76
2022/10/06 15:42:36;;;;;;;0.00;0.00;;;;;;;16.24;100.00;102848.72;10553698;28;20047;-76
2022/10/06 15:47:37;;;;;;;0.00;0.00;;;;;;;16.20;100.00;102844.22;10582921;28;20054;-77
2022/10/06 15:52:39;;;;;;;0.15;0.00;;;;;;;15.99;100.00;102847.88;10568710;28;20386;-75
2022/10/06 15:57:40;;;;;;;0.03;0.00;;;;;;;15.63;100.00;102850.91;10571002;28;20455;-76
2022/10/06 16:02:42;;;;;;;0.00;0.00;;;;;;;15.62;100.00;102847.44;10575946;28;20531;-75
2022/10/06 16:07:44;;;;;;;0.17;0.00;;;;;;;15.54;100.00;102854.94;10581348;28;20437;-76
2022/10/06 16:12:45;;;;;;;0.10;0.10;;;;;;;15.58;100.00;102855.06;10567530;28;20540;-76
2022/10/06 16:17:47;;;;;;;0.10;0.00;;;;;;;15.31;100.00;102851.50;10568835;28;20514;-76
2022/10/06 16:22:48;;;;;;;4.75;0.13;;;;;;;15.08;100.00;102848.00;10544732;28;20554;-76
2022/10/06 16:27:50;;;;;;;0.10;0.10;;;;;;;14.82;100.00;102860.00;10548913;28;20394;-76
2022/10/06 16:32:51;;;;;;;3.40;0.20;;;;;;;14.64;100.00;102855.81;10544449;28;20059;-76
2022/10/06 16:37:53;;;;;;;0.77;0.15;;;;;;;14.30;100.00;102858.72;10565393;28;20130;-76
2022/10/06 16:42:55;;;;;;;0.00;0.00;;;;;;;14.11;100.00;102868.31;10576618;28;20073;-76
2022/10/06 16:47:58;;;;;;;0.20;0.20;;;;;;;13.95;100.00;102871.94;10563028;28;20053;-76
2022/10/06 16:53:00;;;;;;;0.00;0.00;;;;;;;13.89;100.00;102876.84;10571308;28;20042;-76
2022/10/06 16:58:02;;;;;;;0.15;0.10;;;;;;;13.44;100.00;102875.75;10567111;28;20040;-76
2022/10/06 17:03:04;;;;;;;0.75;0.05;;;;;;;13.34;100.00;102878.69;10556557;28;20067;-75
2022/10/06 17:08:06;;;;;;;0.22;0.05;;;;;;;13.22;100.00;102886.78;10557055;28;20058;-76
2022/10/06 17:13:07;;;;;;;0.70;0.38;;;;;;;13.02;100.00;102883.28;10572872;28;20071;-76
2022/10/06 17:18:09;;;;;;;0.47;0.10;;;;;;;12.86;100.00;102884.22;10580824;28;20143;-75
2022/10/06 17:23:11;;;;;;;0.10;0.10;;;;;;;12.69;100.00;102888.56;10580586;28;20063;-75
2022/10/06 17:35:17;;;;;;;0.00;0.00;;;;;;;12.59;100.00;102886.34;10577783;28;20039;-75
2022/10/06 17:41:05;;;;;;;0.52;0.22;;;;;;;12.40;100.00;102894.91;10579039;28;20127;-75
2022/10/06 17:46:12;;;;;;;0.38;0.10;;;;;;;12.27;100.00;102896.84;10587985;28;20040;-75
2022/10/06 17:51:16;;;;;;;0.10;0.10;;;;;;;12.33;100.00;102893.69;10587380;28;20550;-75
2022/10/06 17:56:23;;;;;;;0.05;0.00;;;;;;;11.39;100.00;102913.75;10588929;28;20134;-76
2022/10/06 18:01:28;;;;;;;0.38;0.17;;;;;;;11.22;100.00;102915.41;10553778;28;20075;-75
2022/10/06 18:06:33;;;;;;;0.30;0.30;;;;;;;10.86;100.00;102924.53;10588586;28;20372;-76
2022/10/06 18:11:37;;;;;;;1.67;0.75;;;;;;;10.61;100.00;102924.00;10588241;28;20399;-75
2022/10/06 18:16:41;;;;;;;0.10;0.10;;;;;;;10.86;100.00;102909.06;10586736;28;20205;-75
2022/10/06 18:21:44;;;;;;;0.00;0.00;;;;;;;10.90;100.00;102911.03;10586809;28;20104;-77
2022/10/06 18:26:50;;;;;;;0.10;0.08;;;;;;;10.55;100.00;102922.75;10587926;28;20059;-75
2022/10/06 18:31:52;;;;;;;0.00;0.00;;;;;;;10.39;100.00;102934.72;10577607;28;20043;-76
2022/10/06 18:36:54;;;;;;;0.13;0.03;;;;;;;10.04;100.00;102936.06;10604234;28;20044;-75
2022/10/06 18:41:57;;;;;;;0.30;0.20;;;;;;;10.09;100.00;102926.03;10584583;28;20056;-76
2022/10/06 18:52:20;;;;;;;0.00;0.00;;;;;;;10.00;100.00;102922.09;10585988;28;20130;-76
2022/10/06 18:57:23;;;;;;;0.03;0.03;;;;;;;9.68;100.00;102930.44;10567934;28;20409;-76
2022/10/06 19:02:28;;;;;;;0.00;0.00;;;;;;;9.49;100.00;102942.13;10568443;28;20048;-76
2022/10/06 19:07:29;;;;;;;8.30;0.30;;;;;;;9.45;100.00;102942.75;10568083;28;20050;-76
2022/10/06 19:12:31;;;;;;;0.00;0.00;;;;;;;9.41;100.00;102948.50;10552952;28;20044;-75
2022/10/06 19:17:33;;;;;;;0.93;0.65;;;;;;;9.58;100.00;102946.06;10556467;28;20104;-75
2022/10/06 19:22:35;;;;;;;0.00;0.00;;;;;;;9.50;100.00;102951.63;10549939;28;20052;-76
2022/10/06 19:27:37;;;;;;;0.00;0.00;;;;;;;9.50;100.00;102948.19;10569900;28;20054;-76
2022/10/06 19:32:39;;;;;;;1.08;0.73;;;;;;;9.52;100.00;102950.06;10568786;28;20394;-76
2022/10/06 19:37:41;;;;;;;0.17;0.17;;;;;;;9.59;100.00;102937.56;10565099;28;20490;-76
2022/10/06 19:42:49;;;;;;;0.13;0.13;;;;;;;9.63;100.00;102934.41;10565650;28;20067;-75
2022/10/06 19:47:52;;;;;;;0.20;0.20;;;;;;;9.67;100.00;102934.72;10584170;28;20466;-76
2022/10/06 19:52:54;;;;;;;0.10;0.10;;;;;;;9.47;100.00;102933.44;10584306;28;20119;-76
2022/10/06 19:57:55;;;;;;;0.35;0.28;;;;;;;8.70;100.00;102956.75;10583479;28;20081;-76
2022/10/06 20:02:57;;;;;;;1.15;0.22;;;;;;;9.11;100.00;102939.69;10584836;28;20039;-76
2022/10/06 20:07:58;;;;;;;0.75;0.73;;;;;;;8.96;100.00;102952.47;10585848;28;20047;-76
2022/10/06 20:13:04;;;;;;;0.00;0.00;;;;;;;8.51;100.00;102955.53;10584641;28;20046;-77
2022/10/06 20:18:07;;;;;;;1.10;0.20;;;;;;;8.60;100.00;102962.09;10548070;28;20048;-76
2022/10/06 20:23:08;;;;;;;0.05;0.05;;;;;;;8.83;100.00;102955.91;10583109;28;20118;-77
2022/10/06 20:28:10;;;;;;;2.95;0.22;;;;;;;8.79;100.00;102946.19;10579698;28;20127;-76
2022/10/06 20:33:11;;;;;;;0.45;0.35;;;;;;;8.71;100.00;102940.56;10582432;28;20047;-77
2022/10/06 20:38:13;;;;;;;0.63;0.38;;;;;;;9.01;100.00;102935.63;10577265;28;20081;-77
2022/10/06 20:43:15;;;;;;;0.00;0.00;;;;;;;9.10;100.00;102918.25;10581050;28;20454;-76
2022/10/06 20:48:17;;;;;;;0.25;0.25;;;;;;;9.19;100.00;102920.50;10581070;28;20482;-76
2022/10/06 20:53:18;;;;;;;0.10;0.03;;;;;;;9.27;100.00;102918.44;10566205;28;20118;-76
2022/10/06 20:58:20;;;;;;;0.17;0.17;;;;;;;9.20;100.00;102912.00;10580699;28;20490;-77
2022/10/06 21:03:21;;;;;;;0.10;0.10;;;;;;;9.11;100.00;102917.47;10578929;28;20482;-76
2022/10/06 21:08:50;;;;;;;0.17;0.17;;;;;;;9.21;100.00;102908.66;10534260;28;20077;-77
2022/10/06 21:13:54;;;;;;;0.47;0.28;;;;;;;9.20;100.00;102902.59;10562039;28;20536;-78
2022/10/06 21:19:08;;;;;;;0.22;0.22;;;;;;;9.15;100.00;102896.28;10586679;28;20048;-77
2022/10/06 21:24:10;;;;;;;0.00;0.00;;;;;;;9.13;100.00;102892.72;10574157;28;20036;-77
2022/10/06 21:29:14;;;;;;;0.30;0.30;;;;;;;8.95;100.00;102887.28;10588533;28;20494;-77
2022/10/06 21:34:18;;;;;;;0.70;0.70;;;;;;;8.81;100.00;102890.63;10589331;28;20036;-77
2022/10/06 21:39:20;;;;;;;0.00;0.00;;;;;;;8.84;100.00;102893.41;10586405;28;20100;-77
2022/10/06 21:44:46;;;;;;;1.30;0.25;;;;;;;8.81;100.00;102881.25;10588573;28;20044;-77
2022/10/06 21:49:47;;;;;;;0.20;0.20;;;;;;;8.70;100.00;102877.09;10588111;28;20043;-77
2022/10/06 21:54:49;;;;;;;0.00;0.00;;;;;;;8.65;100.00;102873.34;10555854;28;20040;-77
2022/10/06 21:59:50;;;;;;;1.15;0.40;;;;;;;8.64;100.00;102867.28;10569707;28;20055;-75
2022/10/06 22:04:52;;;;;;;1.55;0.63;;;;;;;8.60;100.00;102864.44;10572253;28;20031;-75
2022/10/06 22:09:54;;;;;;;0.20;0.15;;;;;;;8.60;100.00;102869.59;10573391;28;20096;-76
2022/10/06 22:14:57;;;;;;;0.38;0.30;;;;;;;8.58;100.00;102861.75;10558567;28;20494;-75
2022/10/06 22:19:59;;;;;;;0.25;0.20;;;;;;;8.45;100.00;102848.88;10587389;28;20043;-74
2022/10/06 22:25:04;;;;;;;0.10;0.10;;;;;;;8.49;100.00;102851.78;10558341;28;20093;-77
2022/10/06 22:30:06;;;;;;;0.10;0.10;;;;;;;8.52;100.00;102841.72;10585556;28;20044;-77
2022/10/06 22:35:07;;;;;;;0.50;0.10;;;;;;;8.47;100.00;102845.63;10572662;28;20040;-76
2022/10/06 22:40:09;;;;;;;0.43;0.22;;;;;;;8.44;100.00;102847.09;10586231;28;20043;-76
2022/10/06 22:45:11;;;;;;;0.00;0.00;;;;;;;8.33;100.00;102848.94;10568074;28;20047;-76
2022/10/06 22:50:13;;;;;;;0.20;0.10;;;;;;;8.37;100.00;102838.09;10567973;28;20452;-76
2022/10/06 22:55:14;;;;;;;0.10;0.10;;;;;;;8.35;100.00;102831.97;10558997;28;20039;-76
2022/10/06 23:00:16;;;;;;;0.00;0.00;;;;;;;8.24;100.00;102834.69;10576302;28;20096;-76
2022/10/06 23:05:17;;;;;;;1.20;0.57;;;;;;;8.23;100.00;102832.91;10588749;28;20403;-76
2022/10/06 23:10:20;;;;;;;0.00;0.00;;;;;;;8.21;100.00;102833.59;10567699;28;20043;-76
2022/10/06 23:15:22;;;;;;;0.20;0.20;;;;;;;8.20;100.00;102837.88;10584612;28;20047;-76
2022/10/06 23:20:24;;;;;;;0.35;0.15;;;;;;;8.00;100.00;102831.38;10584498;28;20051;-76
2022/10/06 23:25:26;;;;;;;0.10;0.10;;;;;;;7.88;100.00;102872.50;10567046;28;20036;-76
2022/10/06 23:30:27;;;;;;;0.55;0.50;;;;;;;7.72;100.00;102885.06;10584355;28;20047;-76
2022/10/06 23:35:29;;;;;;;0.20;0.08;;;;;;;7.71;100.00;102879.06;10549116;28;20051;-76
2022/10/06 23:40:31;;;;;;;3.10;0.35;;;;;;;7.80;100.00;102881.34;10565013;28;20039;-77
2022/10/06 23:45:32;;;;;;;0.25;0.20;;;;;;;7.81;100.00;102887.41;10583833;28;20035;-77
2022/10/06 23:50:34;;;;;;;1.88;1.67;;;;;;;7.68;100.00;102890.78;10583525;28;20093;-76
2022/10/06 23:55:48;;;;;;;0.63;0.13;;;;;;;7.63;100.00;102888.75;10555295;28;20048;-76
